Date,TemperatureHighF,TemperatureAvgF,TemperatureLowF,DewpointHighF,DewpointAvgF,DewpointLowF,HumidityHigh,HumidityAvg,HumidityLow,PressureMaxIn,PressureMinIn,WindSpeedMaxMPH,WindSpeedAvgMPH,GustSpeedMaxMPH,PrecipitationSumIn
2013-10-1,81,68,58,72,65,54,99,91,72,30.09,29.96,30,10,30,0.00
2013-10-2,78,63,46,63,53,45,99,75,35,30.25,30.09,12,4,12,0.00
2013-10-3,76,67,59,75,66,55,99,98,87,30.12,29.97,24,8,24,0.00
2013-10-4,67,63,60,66,63,60,99,99,99,30.17,30.01,21,6,21,0.00
2013-10-5,72,65,60,72,65,60,99,99,99,30.09,29.87,23,7,23,0.00
2013-10-6,63,54,45,63,50,45,99,90,66,29.89,29.80,23,6,23,0.00
2013-10-7,66,52,45,56,50,45,99,91,61,30.21,29.84,23,7,23,0.00
2013-10-8,77,60,42,60,53,41,99,81,49,30.28,30.21,21,7,21,0.00
2013-10-9,64,57,54,58,55,53,99,92,80,30.36,30.26,13,7,13,0.00
2013-10-10,74,60,50,64,56,50,99,86,53,30.30,30.18,16,6,16,0.00
2013-10-11,75,63,56,67,60,55,99,88,67,30.19,30.08,25,10,25,0.00
2013-10-12,70,62,50,66,58,43,99,87,57,30.28,30.05,24,10,24,0.00
2013-10-13,60,49,39,49,44,39,99,83,54,30.52,30.28,26,5,26,0.00
2013-10-14,61,48,34,54,44,33,99,90,65,30.54,30.26,57,6,57,0.00
2013-10-15,60,54,48,60,54,48,99,99,97,30.26,29.86,28,10,28,0.00
2013-10-16,54,50,47,53,49,47,99,99,99,30.05,29.90,17,8,20,0.00
2013-10-17,52,46,43,50,46,42,99,98,85,30.04,29.93,14,4,14,0.00
2013-10-18,48,44,40,48,44,40,99,99,96,30.06,29.92,21,6,21,0.00
2013-10-19,51,43,37,46,41,36,99,92,67,30.03,29.85,29,6,29,0.00
2013-10-20,50,42,30,49,41,30,99,97,78,29.98,29.83,18,6,18,0.00
2013-10-21,48,39,32,48,36,29,99,89,70,30.05,29.85,29,10,29,0.00
2013-10-22,45,36,26,36,32,26,99,86,64,30.08,30.01,14,5,14,0.00
2013-10-23,42,35,26,34,30,25,99,84,54,30.12,30.04,24,8,24,0.00
2013-10-24,43,35,29,33,31,-10,99,86,63,30.40,30.11,24,9,24,0.00
2013-10-25,50,37,25,36,31,25,99,82,54,30.47,30.16,30,7,30,0.00
2013-10-26,50,46,40,36,34,32,77,63,53,30.18,30.04,30,12,30,0.00
2013-10-27,54,42,30,37,34,30,99,74,47,30.17,30.03,27,6,27,0.00
2013-10-28,44,40,35,40,36,32,99,86,78,30.53,30.15,21,8,21,0.00
2013-10-29,53,43,33,48,42,32,99,96,79,30.52,30.26,17,6,17,0.00
2013-10-30,55,50,42,55,50,42,99,99,99,30.26,29.88,29,7,29,0.00
2013-10-31,71,56,44,71,56,43,99,99,99,29.88,29.36,30,10,30,0.00